sensor_id;sensor_type;location;lat;lon;timestamp;temperature;humidity
11597;DHT22;5854;48.072;16.286;2024-01-10T00:02:08;-4.30;68.10
11597;DHT22;5854;48.072;16.286;2024-01-10T00:04:35;-4.40;66.10
11597;DHT22;5854;48.072;16.286;2024-01-10T00:07:04;-4.40;66.90
11597;DHT22;5854;48.072;16.286;2024-01-10T00:09:31;-4.40;67.10
11597;DHT22;5854;48.072;16.286;2024-01-10T00:11:59;-4.40;67.50
11597;DHT22;5854;48.072;16.286;2024-01-10T00:14:26;-4.30;68.30
11597;DHT22;5854;48.072;16.286;2024-01-10T00:16:53;-4.30;68.60
11597;DHT22;5854;48.072;16.286;2024-01-10T00:19:20;-4.30;68.30
11597;DHT22;5854;48.072;16.286;2024-01-10T00:21:48;-4.30;69.10
11597;DHT22;5854;48.072;16.286;2024-01-10T00:24:16;-4.40;66.10
11597;DHT22;5854;48.072;16.286;2024-01-10T00:26:43;-4.50;65.00
11597;DHT22;5854;48.072;16.286;2024-01-10T00:29:11;-4.50;66.20
11597;DHT22;5854;48.072;16.286;2024-01-10T00:31:39;-4.50;66.40
11597;DHT22;5854;48.072;16.286;2024-01-10T00:34:07;-4.50;68.10
11597;DHT22;5854;48.072;16.286;2024-01-10T00:36:34;-4.50;67.20
11597;DHT22;5854;48.072;16.286;2024-01-10T00:39:02;-4.50;68.80
11597;DHT22;5854;48.072;16.286;2024-01-10T00:41:30;-4.50;67.60
11597;DHT22;5854;48.072;16.286;2024-01-10T00:43:57;-4.50;67.00
11597;DHT22;5854;48.072;16.286;2024-01-10T00:46:25;-4.60;66.70
11597;DHT22;5854;48.072;16.286;2024-01-10T00:48:52;-4.50;68.00
11597;DHT22;5854;48.072;16.286;2024-01-10T00:51:20;-4.50;67.20
11597;DHT22;5854;48.072;16.286;2024-01-10T00:53:47;-4.50;67.90
11597;DHT22;5854;48.072;16.286;2024-01-10T00:56:14;-4.60;65.70
11597;DHT22;5854;48.072;16.286;2024-01-10T00:58:43;-4.60;66.80
11597;DHT22;5854;48.072;16.286;2024-01-10T01:01:10;-4.60;65.50
11597;DHT22;5854;48.072;16.286;2024-01-10T01:03:38;-4.70;66.00
11597;DHT22;5854;48.072;16.286;2024-01-10T01:06:05;-4.70;67.00
11597;DHT22;5854;48.072;16.286;2024-01-10T01:08:32;-4.70;67.00
11597;DHT22;5854;48.072;16.286;2024-01-10T01:11:00;-4.70;65.50
11597;DHT22;5854;48.072;16.286;2024-01-10T01:13:27;-4.70;65.60
11597;DHT22;5854;48.072;16.286;2024-01-10T01:15:55;-4.70;66.30
11597;DHT22;5854;48.072;16.286;2024-01-10T01:18:23;-4.70;68.20
11597;DHT22;5854;48.072;16.286;2024-01-10T01:20:50;-4.80;65.30
11597;DHT22;5854;48.072;16.286;2024-01-10T01:23:18;-4.80;66.50
11597;DHT22;5854;48.072;16.286;2024-01-10T01:25:46;-4.70;68.40
11597;DHT22;5854;48.072;16.286;2024-01-10T01:28:13;-4.80;65.80
11597;DHT22;5854;48.072;16.286;2024-01-10T01:30:40;-4.80;67.10
11597;DHT22;5854;48.072;16.286;2024-01-10T01:33:08;-4.70;68.90
11597;DHT22;5854;48.072;16.286;2024-01-10T01:35:36;-4.70;67.80
11597;DHT22;5854;48.072;16.286;2024-01-10T01:38:03;-4.80;67.80
11597;DHT22;5854;48.072;16.286;2024-01-10T01:40:29;-4.80;67.40
11597;DHT22;5854;48.072;16.286;2024-01-10T01:42:57;-4.90;66.70
11597;DHT22;5854;48.072;16.286;2024-01-10T01:45:24;-4.90;65.50
11597;DHT22;5854;48.072;16.286;2024-01-10T01:47:51;-4.90;66.50
11597;DHT22;5854;48.072;16.286;2024-01-10T01:50:20;-4.80;67.90
11597;DHT22;5854;48.072;16.286;2024-01-10T01:52:47;-4.70;70.40
11597;DHT22;5854;48.072;16.286;2024-01-10T01:55:15;-4.80;68.00
11597;DHT22;5854;48.072;16.286;2024-01-10T01:57:42;-4.80;67.20
11597;DHT22;5854;48.072;16.286;2024-01-10T02:00:10;-4.80;68.30
11597;DHT22;5854;48.072;16.286;2024-01-10T02:02:38;-4.80;68.50
11597;DHT22;5854;48.072;16.286;2024-01-10T02:05:06;-4.90;64.90
11597;DHT22;5854;48.072;16.286;2024-01-10T02:07:36;-5.00;65.50
11597;DHT22;5854;48.072;16.286;2024-01-10T02:10:04;-5.10;64.30
11597;DHT22;5854;48.072;16.286;2024-01-10T02:12:32;-5.00;66.30
11597;DHT22;5854;48.072;16.286;2024-01-10T02:15:00;-5.10;65.00
11597;DHT22;5854;48.072;16.286;2024-01-10T02:17:27;-5.10;67.10
11597;DHT22;5854;48.072;16.286;2024-01-10T02:20:08;-5.00;68.90
11597;DHT22;5854;48.072;16.286;2024-01-10T02:22:37;-5.00;70.30
11597;DHT22;5854;48.072;16.286;2024-01-10T02:25:07;-5.00;68.70
11597;DHT22;5854;48.072;16.286;2024-01-10T02:27:35;-5.00;67.50
11597;DHT22;5854;48.072;16.286;2024-01-10T02:30:04;-5.00;68.40
11597;DHT22;5854;48.072;16.286;2024-01-10T02:32:32;-5.00;69.60
11597;DHT22;5854;48.072;16.286;2024-01-10T02:35:00;-5.00;67.40
11597;DHT22;5854;48.072;16.286;2024-01-10T02:37:28;-5.10;67.60
11597;DHT22;5854;48.072;16.286;2024-01-10T02:39:55;-5.00;69.20
11597;DHT22;5854;48.072;16.286;2024-01-10T02:42:23;-5.00;69.60
11597;DHT22;5854;48.072;16.286;2024-01-10T02:44:51;-5.10;68.60
11597;DHT22;5854;48.072;16.286;2024-01-10T02:47:18;-5.00;68.80
11597;DHT22;5854;48.072;16.286;2024-01-10T02:49:45;-5.10;67.70
11597;DHT22;5854;48.072;16.286;2024-01-10T02:52:12;-5.10;67.60
11597;DHT22;5854;48.072;16.286;2024-01-10T02:54:39;-5.10;68.90
11597;DHT22;5854;48.072;16.286;2024-01-10T02:57:07;-5.10;70.00
11597;DHT22;5854;48.072;16.286;2024-01-10T02:59:35;-5.10;69.40
11597;DHT22;5854;48.072;16.286;2024-01-10T03:02:03;-5.10;69.80
11597;DHT22;5854;48.072;16.286;2024-01-10T03:04:30;-5.00;70.90
11597;DHT22;5854;48.072;16.286;2024-01-10T03:06:58;-5.10;68.10
11597;DHT22;5854;48.072;16.286;2024-01-10T03:09:25;-5.10;68.10
11597;DHT22;5854;48.072;16.286;2024-01-10T03:11:52;-5.10;69.50
11597;DHT22;5854;48.072;16.286;2024-01-10T03:14:20;-5.00;69.40
11597;DHT22;5854;48.072;16.286;2024-01-10T03:16:49;-5.10;67.30
11597;DHT22;5854;48.072;16.286;2024-01-10T03:19:16;-5.10;69.40
11597;DHT22;5854;48.072;16.286;2024-01-10T03:21:43;-5.10;67.90
11597;DHT22;5854;48.072;16.286;2024-01-10T03:24:10;-5.10;67.10
11597;DHT22;5854;48.072;16.286;2024-01-10T03:26:38;-5.20;68.40
11597;DHT22;5854;48.072;16.286;2024-01-10T03:29:05;-5.20;68.00
11597;DHT22;5854;48.072;16.286;2024-01-10T03:31:32;-5.20;67.10
11597;DHT22;5854;48.072;16.286;2024-01-10T03:34:01;-5.20;69.10
11597;DHT22;5854;48.072;16.286;2024-01-10T03:36:28;-5.10;71.30
11597;DHT22;5854;48.072;16.286;2024-01-10T03:38:56;-5.10;70.30
11597;DHT22;5854;48.072;16.286;2024-01-10T03:41:23;-5.20;69.20
11597;DHT22;5854;48.072;16.286;2024-01-10T03:43:50;-5.10;70.30
11597;DHT22;5854;48.072;16.286;2024-01-10T03:46:17;-5.20;68.40
11597;DHT22;5854;48.072;16.286;2024-01-10T03:48:44;-5.30;68.30
11597;DHT22;5854;48.072;16.286;2024-01-10T03:51:16;-5.20;69.60
11597;DHT22;5854;48.072;16.286;2024-01-10T03:53:44;-5.30;69.20
11597;DHT22;5854;48.072;16.286;2024-01-10T03:56:12;-5.20;69.90
11597;DHT22;5854;48.072;16.286;2024-01-10T03:58:39;-5.30;69.20
11597;DHT22;5854;48.072;16.286;2024-01-10T04:01:07;-5.30;70.00
11597;DHT22;5854;48.072;16.286;2024-01-10T04:03:35;-5.30;67.40
11597;DHT22;5854;48.072;16.286;2024-01-10T04:06:03;-5.40;68.30
11597;DHT22;5854;48.072;16.286;2024-01-10T04:08:32;-5.40;68.90
11597;DHT22;5854;48.072;16.286;2024-01-10T04:10:59;-5.40;69.00
11597;DHT22;5854;48.072;16.286;2024-01-10T04:13:28;-5.40;67.70
11597;DHT22;5854;48.072;16.286;2024-01-10T04:15:56;-5.40;67.90
11597;DHT22;5854;48.072;16.286;2024-01-10T04:18:23;-5.50;68.20
11597;DHT22;5854;48.072;16.286;2024-01-10T04:20:50;-5.40;67.80
11597;DHT22;5854;48.072;16.286;2024-01-10T04:23:18;-5.50;67.30
11597;DHT22;5854;48.072;16.286;2024-01-10T04:25:46;-5.50;68.50
11597;DHT22;5854;48.072;16.286;2024-01-10T04:28:14;-5.40;68.90
11597;DHT22;5854;48.072;16.286;2024-01-10T04:30:41;-5.40;70.30
11597;DHT22;5854;48.072;16.286;2024-01-10T04:33:08;-5.40;70.50
11597;DHT22;5854;48.072;16.286;2024-01-10T04:35:36;-5.40;71.00
11597;DHT22;5854;48.072;16.286;2024-01-10T04:38:03;-5.30;69.50
11597;DHT22;5854;48.072;16.286;2024-01-10T04:40:31;-5.40;68.80
11597;DHT22;5854;48.072;16.286;2024-01-10T04:42:59;-5.50;68.10
11597;DHT22;5854;48.072;16.286;2024-01-10T04:45:26;-5.50;68.60
11597;DHT22;5854;48.072;16.286;2024-01-10T04:47:54;-5.50;68.70
11597;DHT22;5854;48.072;16.286;2024-01-10T04:50:21;-5.50;68.50
11597;DHT22;5854;48.072;16.286;2024-01-10T04:52:48;-5.60;67.90
11597;DHT22;5854;48.072;16.286;2024-01-10T04:55:16;-5.60;68.80
11597;DHT22;5854;48.072;16.286;2024-01-10T04:57:43;-5.60;68.40
11597;DHT22;5854;48.072;16.286;2024-01-10T05:00:12;-5.60;66.50
11597;DHT22;5854;48.072;16.286;2024-01-10T05:02:40;-5.60;66.60
11597;DHT22;5854;48.072;16.286;2024-01-10T05:05:08;-5.70;66.90
11597;DHT22;5854;48.072;16.286;2024-01-10T05:07:35;-5.70;67.30
11597;DHT22;5854;48.072;16.286;2024-01-10T05:10:03;-5.60;68.10
11597;DHT22;5854;48.072;16.286;2024-01-10T05:12:30;-5.60;68.80
11597;DHT22;5854;48.072;16.286;2024-01-10T05:14:57;-5.60;69.80
11597;DHT22;5854;48.072;16.286;2024-01-10T05:17:26;-5.60;69.00
11597;DHT22;5854;48.072;16.286;2024-01-10T05:19:54;-5.60;67.60
11597;DHT22;5854;48.072;16.286;2024-01-10T05:22:21;-5.70;66.70
11597;DHT22;5854;48.072;16.286;2024-01-10T05:24:48;-5.70;68.10
11597;DHT22;5854;48.072;16.286;2024-01-10T05:27:15;-5.80;66.70
11597;DHT22;5854;48.072;16.286;2024-01-10T05:29:43;-5.70;68.50
11597;DHT22;5854;48.072;16.286;2024-01-10T05:32:11;-5.70;69.00
11597;DHT22;5854;48.072;16.286;2024-01-10T05:34:40;-5.60;69.90
11597;DHT22;5854;48.072;16.286;2024-01-10T05:37:07;-5.60;70.20
11597;DHT22;5854;48.072;16.286;2024-01-10T05:39:35;-5.60;70.70
11597;DHT22;5854;48.072;16.286;2024-01-10T05:42:03;-5.50;71.90
11597;DHT22;5854;48.072;16.286;2024-01-10T05:44:30;-5.50;70.10
11597;DHT22;5854;48.072;16.286;2024-01-10T05:46:57;-5.60;69.30
11597;DHT22;5854;48.072;16.286;2024-01-10T05:49:25;-5.60;68.10
11597;DHT22;5854;48.072;16.286;2024-01-10T05:51:54;-5.60;68.30
11597;DHT22;5854;48.072;16.286;2024-01-10T05:54:21;-5.60;67.60
11597;DHT22;5854;48.072;16.286;2024-01-10T05:56:48;-5.60;67.60
11597;DHT22;5854;48.072;16.286;2024-01-10T05:59:15;-5.60;67.20
11597;DHT22;5854;48.072;16.286;2024-01-10T06:01:43;-5.60;67.00
11597;DHT22;5854;48.072;16.286;2024-01-10T06:04:10;-5.70;66.40
11597;DHT22;5854;48.072;16.286;2024-01-10T06:06:37;-5.70;66.70
11597;DHT22;5854;48.072;16.286;2024-01-10T06:09:06;-5.70;66.50
11597;DHT22;5854;48.072;16.286;2024-01-10T06:11:40;-5.70;66.30
11597;DHT22;5854;48.072;16.286;2024-01-10T06:14:08;-5.70;65.60
11597;DHT22;5854;48.072;16.286;2024-01-10T06:16:35;-5.70;65.60
11597;DHT22;5854;48.072;16.286;2024-01-10T06:19:02;-5.80;65.20
11597;DHT22;5854;48.072;16.286;2024-01-10T06:21:30;-5.80;65.50
11597;DHT22;5854;48.072;16.286;2024-01-10T06:23:58;-5.80;65.70
11597;DHT22;5854;48.072;16.286;2024-01-10T06:26:27;-5.80;65.90
11597;DHT22;5854;48.072;16.286;2024-01-10T06:28:54;-5.80;65.60
11597;DHT22;5854;48.072;16.286;2024-01-10T06:31:21;-5.80;65.10
11597;DHT22;5854;48.072;16.286;2024-01-10T06:33:49;-5.80;64.80
11597;DHT22;5854;48.072;16.286;2024-01-10T06:36:16;-5.90;65.30
11597;DHT22;5854;48.072;16.286;2024-01-10T06:38:44;-6.10;60.20
11597;DHT22;5854;48.072;16.286;2024-01-10T06:41:11;-6.70;56.00
11597;DHT22;5854;48.072;16.286;2024-01-10T06:43:41;-7.00;61.00
11597;DHT22;5854;48.072;16.286;2024-01-10T06:46:09;-7.00;63.10
11597;DHT22;5854;48.072;16.286;2024-01-10T06:48:37;-6.80;64.70
11597;DHT22;5854;48.072;16.286;2024-01-10T06:51:09;-6.70;65.00
11597;DHT22;5854;48.072;16.286;2024-01-10T06:53:38;-6.50;66.00
11597;DHT22;5854;48.072;16.286;2024-01-10T06:56:06;-6.50;65.50
11597;DHT22;5854;48.072;16.286;2024-01-10T06:58:35;-6.40;65.80
11597;DHT22;5854;48.072;16.286;2024-01-10T07:01:04;-6.30;66.70
11597;DHT22;5854;48.072;16.286;2024-01-10T07:03:32;-6.30;66.40
11597;DHT22;5854;48.072;16.286;2024-01-10T07:06:00;-6.30;65.60
11597;DHT22;5854;48.072;16.286;2024-01-10T07:08:29;-6.30;64.80
11597;DHT22;5854;48.072;16.286;2024-01-10T07:10:57;-6.20;66.70
11597;DHT22;5854;48.072;16.286;2024-01-10T07:13:26;-6.20;66.50
11597;DHT22;5854;48.072;16.286;2024-01-10T07:15:54;-6.20;65.60
11597;DHT22;5854;48.072;16.286;2024-01-10T07:18:41;-6.20;66.00
11597;DHT22;5854;48.072;16.286;2024-01-10T07:21:45;-6.20;65.60
11597;DHT22;5854;48.072;16.286;2024-01-10T07:24:29;-6.20;65.00
11597;DHT22;5854;48.072;16.286;2024-01-10T07:26:56;-6.20;65.40
11597;DHT22;5854;48.072;16.286;2024-01-10T07:29:24;-6.20;65.60
11597;DHT22;5854;48.072;16.286;2024-01-10T07:31:51;-6.20;66.60
11597;DHT22;5854;48.072;16.286;2024-01-10T07:34:21;-6.20;65.90
11597;DHT22;5854;48.072;16.286;2024-01-10T07:36:48;-6.20;66.70
11597;DHT22;5854;48.072;16.286;2024-01-10T07:39:15;-6.20;67.20
11597;DHT22;5854;48.072;16.286;2024-01-10T07:41:44;-6.10;67.70
11597;DHT22;5854;48.072;16.286;2024-01-10T07:44:11;-6.10;68.10
11597;DHT22;5854;48.072;16.286;2024-01-10T07:46:38;-6.10;68.50
11597;DHT22;5854;48.072;16.286;2024-01-10T07:49:05;-6.10;67.90
11597;DHT22;5854;48.072;16.286;2024-01-10T07:51:34;-6.10;67.60
11597;DHT22;5854;48.072;16.286;2024-01-10T07:54:04;-6.00;67.90
11597;DHT22;5854;48.072;16.286;2024-01-10T07:56:33;-6.00;68.60
11597;DHT22;5854;48.072;16.286;2024-01-10T07:59:01;-6.10;66.80
11597;DHT22;5854;48.072;16.286;2024-01-10T08:01:28;-6.10;67.90
11597;DHT22;5854;48.072;16.286;2024-01-10T08:03:55;-6.00;68.60
11597;DHT22;5854;48.072;16.286;2024-01-10T08:06:22;-6.00;68.70
11597;DHT22;5854;48.072;16.286;2024-01-10T08:08:51;-5.90;69.10
11597;DHT22;5854;48.072;16.286;2024-01-10T08:11:18;-5.90;68.80
11597;DHT22;5854;48.072;16.286;2024-01-10T08:13:46;-5.90;68.40
11597;DHT22;5854;48.072;16.286;2024-01-10T08:16:13;-5.90;68.60
11597;DHT22;5854;48.072;16.286;2024-01-10T08:18:40;-5.90;68.40
11597;DHT22;5854;48.072;16.286;2024-01-10T08:21:07;-5.80;68.70
11597;DHT22;5854;48.072;16.286;2024-01-10T08:23:35;-5.90;68.50
11597;DHT22;5854;48.072;16.286;2024-01-10T08:26:06;-5.80;68.60
11597;DHT22;5854;48.072;16.286;2024-01-10T08:28:34;-5.80;68.80
11597;DHT22;5854;48.072;16.286;2024-01-10T08:31:01;-5.80;68.50
11597;DHT22;5854;48.072;16.286;2024-01-10T08:33:29;-5.80;68.30
11597;DHT22;5854;48.072;16.286;2024-01-10T08:35:56;-5.80;68.00
11597;DHT22;5854;48.072;16.286;2024-01-10T08:38:24;-5.80;67.90
11597;DHT22;5854;48.072;16.286;2024-01-10T08:40:51;-5.80;67.80
11597;DHT22;5854;48.072;16.286;2024-01-10T08:43:20;-5.80;67.80
11597;DHT22;5854;48.072;16.286;2024-01-10T08:45:47;-5.70;68.40
11597;DHT22;5854;48.072;16.286;2024-01-10T08:48:14;-5.60;67.70
11597;DHT22;5854;48.072;16.286;2024-01-10T08:50:42;-5.60;67.70
11597;DHT22;5854;48.072;16.286;2024-01-10T08:53:10;-5.60;67.20
11597;DHT22;5854;48.072;16.286;2024-01-10T08:55:38;-5.50;67.50
11597;DHT22;5854;48.072;16.286;2024-01-10T08:58:05;-5.40;66.30
11597;DHT22;5854;48.072;16.286;2024-01-10T09:00:34;-5.40;65.60
11597;DHT22;5854;48.072;16.286;2024-01-10T09:03:02;-5.30;65.50
11597;DHT22;5854;48.072;16.286;2024-01-10T09:05:30;-5.20;65.60
11597;DHT22;5854;48.072;16.286;2024-01-10T09:07:58;-5.20;65.30
11597;DHT22;5854;48.072;16.286;2024-01-10T09:10:25;-5.20;65.30
11597;DHT22;5854;48.072;16.286;2024-01-10T09:12:53;-5.10;64.80
11597;DHT22;5854;48.072;16.286;2024-01-10T09:15:20;-5.00;64.10
11597;DHT22;5854;48.072;16.286;2024-01-10T09:17:49;-5.00;63.50
11597;DHT22;5854;48.072;16.286;2024-01-10T09:20:18;-5.00;63.00
11597;DHT22;5854;48.072;16.286;2024-01-10T09:22:46;-5.00;62.70
11597;DHT22;5854;48.072;16.286;2024-01-10T09:25:14;-4.90;62.40
11597;DHT22;5854;48.072;16.286;2024-01-10T09:27:42;-4.90;61.90
11597;DHT22;5854;48.072;16.286;2024-01-10T09:30:11;-4.80;61.90
11597;DHT22;5854;48.072;16.286;2024-01-10T09:32:42;-4.70;62.40
11597;DHT22;5854;48.072;16.286;2024-01-10T09:35:11;-4.70;62.70
11597;DHT22;5854;48.072;16.286;2024-01-10T09:37:38;-4.70;62.00
11597;DHT22;5854;48.072;16.286;2024-01-10T09:40:06;-4.60;62.00
11597;DHT22;5854;48.072;16.286;2024-01-10T09:42:35;-4.60;62.50
11597;DHT22;5854;48.072;16.286;2024-01-10T09:45:04;-4.50;61.80
11597;DHT22;5854;48.072;16.286;2024-01-10T09:47:36;-4.50;61.80
11597;DHT22;5854;48.072;16.286;2024-01-10T09:50:05;-4.50;61.50
11597;DHT22;5854;48.072;16.286;2024-01-10T09:52:41;-4.50;62.20
11597;DHT22;5854;48.072;16.286;2024-01-10T09:55:10;-4.50;61.10
11597;DHT22;5854;48.072;16.286;2024-01-10T09:57:40;-4.40;61.90
11597;DHT22;5854;48.072;16.286;2024-01-10T10:00:09;-4.30;61.40
11597;DHT22;5854;48.072;16.286;2024-01-10T10:02:38;-4.50;61.30
11597;DHT22;5854;48.072;16.286;2024-01-10T10:05:09;-4.40;61.80
11597;DHT22;5854;48.072;16.286;2024-01-10T10:07:46;-4.20;63.90
11597;DHT22;5854;48.072;16.286;2024-01-10T10:10:13;-4.10;63.30
11597;DHT22;5854;48.072;16.286;2024-01-10T10:12:45;-4.10;61.30
11597;DHT22;5854;48.072;16.286;2024-01-10T10:15:14;-4.20;61.60
11597;DHT22;5854;48.072;16.286;2024-01-10T10:17:44;-4.10;63.00
11597;DHT22;5854;48.072;16.286;2024-01-10T10:20:14;-4.10;61.90
11597;DHT22;5854;48.072;16.286;2024-01-10T10:22:57;-4.00;63.80
11597;DHT22;5854;48.072;16.286;2024-01-10T10:25:27;-3.90;62.70
11597;DHT22;5854;48.072;16.286;2024-01-10T10:27:56;-3.90;61.70
11597;DHT22;5854;48.072;16.286;2024-01-10T10:30:23;-4.00;62.50
11597;DHT22;5854;48.072;16.286;2024-01-10T10:32:51;-4.00;62.10
11597;DHT22;5854;48.072;16.286;2024-01-10T10:35:18;-4.00;61.80
11597;DHT22;5854;48.072;16.286;2024-01-10T10:37:48;-3.80;63.90
11597;DHT22;5854;48.072;16.286;2024-01-10T10:40:16;-3.80;64.10
11597;DHT22;5854;48.072;16.286;2024-01-10T10:42:45;-3.80;62.40
11597;DHT22;5854;48.072;16.286;2024-01-10T10:45:15;-3.70;63.30
11597;DHT22;5854;48.072;16.286;2024-01-10T10:47:45;-3.70;61.90
11597;DHT22;5854;48.072;16.286;2024-01-10T10:50:21;-3.70;62.60
11597;DHT22;5854;48.072;16.286;2024-01-10T10:52:51;-3.70;62.40
11597;DHT22;5854;48.072;16.286;2024-01-10T10:55:18;-3.80;62.70
11597;DHT22;5854;48.072;16.286;2024-01-10T10:57:47;-3.80;63.00
11597;DHT22;5854;48.072;16.286;2024-01-10T11:00:18;-3.80;63.00
11597;DHT22;5854;48.072;16.286;2024-01-10T11:02:46;-3.80;62.50
11597;DHT22;5854;48.072;16.286;2024-01-10T11:05:13;-3.70;64.00
11597;DHT22;5854;48.072;16.286;2024-01-10T11:07:41;-3.60;62.70
11597;DHT22;5854;48.072;16.286;2024-01-10T11:10:13;-3.50;62.80
11597;DHT22;5854;48.072;16.286;2024-01-10T11:12:59;-3.50;62.40
11597;DHT22;5854;48.072;16.286;2024-01-10T11:15:51;-3.40;63.80
11597;DHT22;5854;48.072;16.286;2024-01-10T11:18:51;-3.40;63.10
11597;DHT22;5854;48.072;16.286;2024-01-10T11:21:33;-3.40;62.30
11597;DHT22;5854;48.072;16.286;2024-01-10T11:24:09;-3.30;62.90
11597;DHT22;5854;48.072;16.286;2024-01-10T11:26:38;-3.20;62.00
11597;DHT22;5854;48.072;16.286;2024-01-10T11:29:06;-3.30;62.20
11597;DHT22;5854;48.072;16.286;2024-01-10T11:31:33;-3.20;62.60
11597;DHT22;5854;48.072;16.286;2024-01-10T11:34:01;-3.30;61.40
11597;DHT22;5854;48.072;16.286;2024-01-10T11:36:29;-3.20;61.80
11597;DHT22;5854;48.072;16.286;2024-01-10T11:38:59;-3.10;61.20
11597;DHT22;5854;48.072;16.286;2024-01-10T11:41:28;-3.10;61.40
11597;DHT22;5854;48.072;16.286;2024-01-10T11:47:04;-2.70;62.00
11597;DHT22;5854;48.072;16.286;2024-01-10T11:49:31;-2.80;60.70
11597;DHT22;5854;48.072;16.286;2024-01-10T11:51:58;-2.80;60.80
11597;DHT22;5854;48.072;16.286;2024-01-10T11:54:40;-2.80;60.60
11597;DHT22;5854;48.072;16.286;2024-01-10T11:57:12;-2.80;61.50
11597;DHT22;5854;48.072;16.286;2024-01-10T11:59:43;-2.80;61.00
11597;DHT22;5854;48.072;16.286;2024-01-10T12:02:11;-2.70;61.00
11597;DHT22;5854;48.072;16.286;2024-01-10T12:04:39;-2.60;60.40
11597;DHT22;5854;48.072;16.286;2024-01-10T12:07:07;-2.50;60.80
11597;DHT22;5854;48.072;16.286;2024-01-10T12:09:35;-2.60;61.60
11597;DHT22;5854;48.072;16.286;2024-01-10T12:12:02;-2.50;63.80
11597;DHT22;5854;48.072;16.286;2024-01-10T12:14:30;-2.00;64.80
11597;DHT22;5854;48.072;16.286;2024-01-10T12:16:59;-2.00;60.10
11597;DHT22;5854;48.072;16.286;2024-01-10T12:19:27;-2.20;60.20
11597;DHT22;5854;48.072;16.286;2024-01-10T12:21:55;-2.20;61.00
11597;DHT22;5854;48.072;16.286;2024-01-10T12:24:22;-2.10;61.00
11597;DHT22;5854;48.072;16.286;2024-01-10T12:26:49;-2.30;60.20
11597;DHT22;5854;48.072;16.286;2024-01-10T12:29:17;-2.30;61.70
11597;DHT22;5854;48.072;16.286;2024-01-10T12:31:47;-2.20;62.30
11597;DHT22;5854;48.072;16.286;2024-01-10T12:34:15;-2.20;61.80
11597;DHT22;5854;48.072;16.286;2024-01-10T12:36:43;-2.30;61.50
11597;DHT22;5854;48.072;16.286;2024-01-10T12:39:12;-2.30;62.60
11597;DHT22;5854;48.072;16.286;2024-01-10T12:41:40;-2.20;63.90
11597;DHT22;5854;48.072;16.286;2024-01-10T12:44:08;-2.10;63.00
11597;DHT22;5854;48.072;16.286;2024-01-10T12:46:49;-2.10;63.00
11597;DHT22;5854;48.072;16.286;2024-01-10T12:49:19;-2.10;62.70
11597;DHT22;5854;48.072;16.286;2024-01-10T12:51:49;-2.10;62.70
11597;DHT22;5854;48.072;16.286;2024-01-10T12:54:16;-2.00;63.60
11597;DHT22;5854;48.072;16.286;2024-01-10T12:56:44;-1.90;63.40
11597;DHT22;5854;48.072;16.286;2024-01-10T12:59:12;-2.00;62.30
11597;DHT22;5854;48.072;16.286;2024-01-10T13:01:39;-2.00;63.80
11597;DHT22;5854;48.072;16.286;2024-01-10T13:04:07;-1.90;63.70
11597;DHT22;5854;48.072;16.286;2024-01-10T13:06:36;-1.80;64.20
11597;DHT22;5854;48.072;16.286;2024-01-10T13:09:04;-1.80;64.80
11597;DHT22;5854;48.072;16.286;2024-01-10T13:11:31;-1.80;64.40
11597;DHT22;5854;48.072;16.286;2024-01-10T13:13:59;-1.90;63.40
11597;DHT22;5854;48.072;16.286;2024-01-10T13:16:29;-1.90;65.00
11597;DHT22;5854;48.072;16.286;2024-01-10T13:18:57;-1.90;65.30
11597;DHT22;5854;48.072;16.286;2024-01-10T13:21:25;-1.80;68.50
11597;DHT22;5854;48.072;16.286;2024-01-10T13:23:53;-1.60;66.20
11597;DHT22;5854;48.072;16.286;2024-01-10T13:26:21;-1.60;64.70
11597;DHT22;5854;48.072;16.286;2024-01-10T13:28:49;-1.60;65.40
11597;DHT22;5854;48.072;16.286;2024-01-10T13:31:16;-1.60;65.30
11597;DHT22;5854;48.072;16.286;2024-01-10T13:33:44;-1.50;65.60
11597;DHT22;5854;48.072;16.286;2024-01-10T13:36:11;-1.60;64.70
11597;DHT22;5854;48.072;16.286;2024-01-10T13:38:39;-1.70;65.10
11597;DHT22;5854;48.072;16.286;2024-01-10T13:41:07;-1.60;64.60
11597;DHT22;5854;48.072;16.286;2024-01-10T13:43:34;-1.60;65.50
11597;DHT22;5854;48.072;16.286;2024-01-10T13:46:02;-1.60;65.70
11597;DHT22;5854;48.072;16.286;2024-01-10T13:48:29;-1.60;65.00
11597;DHT22;5854;48.072;16.286;2024-01-10T13:50:56;-1.70;65.20
11597;DHT22;5854;48.072;16.286;2024-01-10T13:53:24;-1.60;65.00
11597;DHT22;5854;48.072;16.286;2024-01-10T13:55:51;-1.60;65.60
11597;DHT22;5854;48.072;16.286;2024-01-10T13:58:20;-1.40;73.30
11597;DHT22;5854;48.072;16.286;2024-01-10T14:00:49;-1.30;67.40
11597;DHT22;5854;48.072;16.286;2024-01-10T14:03:16;-1.50;66.00
11597;DHT22;5854;48.072;16.286;2024-01-10T14:05:44;-1.60;66.20
11597;DHT22;5854;48.072;16.286;2024-01-10T14:08:11;-1.60;67.00
11597;DHT22;5854;48.072;16.286;2024-01-10T14:10:39;-1.70;67.50
11597;DHT22;5854;48.072;16.286;2024-01-10T14:13:07;-1.70;67.60
11597;DHT22;5854;48.072;16.286;2024-01-10T14:15:36;-1.60;67.40
11597;DHT22;5854;48.072;16.286;2024-01-10T14:18:04;-1.60;67.80
11597;DHT22;5854;48.072;16.286;2024-01-10T14:20:32;-1.60;67.80
11597;DHT22;5854;48.072;16.286;2024-01-10T14:22:59;-1.70;68.10
11597;DHT22;5854;48.072;16.286;2024-01-10T14:25:26;-1.80;66.70
11597;DHT22;5854;48.072;16.286;2024-01-10T14:27:54;-1.80;68.70
11597;DHT22;5854;48.072;16.286;2024-01-10T14:30:24;-1.80;68.20
11597;DHT22;5854;48.072;16.286;2024-01-10T14:32:54;-1.80;68.50
11597;DHT22;5854;48.072;16.286;2024-01-10T14:35:21;-1.70;68.60
11597;DHT22;5854;48.072;16.286;2024-01-10T14:37:49;-1.60;68.10
11597;DHT22;5854;48.072;16.286;2024-01-10T14:40:19;-1.70;67.30
11597;DHT22;5854;48.072;16.286;2024-01-10T14:42:51;-1.70;68.30
11597;DHT22;5854;48.072;16.286;2024-01-10T14:45:19;-1.70;68.90
11597;DHT22;5854;48.072;16.286;2024-01-10T14:47:46;-1.70;68.90
11597;DHT22;5854;48.072;16.286;2024-01-10T14:50:16;-1.70;68.70
11597;DHT22;5854;48.072;16.286;2024-01-10T14:52:47;-1.70;68.40
11597;DHT22;5854;48.072;16.286;2024-01-10T14:55:18;-1.70;68.10
11597;DHT22;5854;48.072;16.286;2024-01-10T14:57:45;-1.80;68.60
11597;DHT22;5854;48.072;16.286;2024-01-10T15:00:14;-2.00;68.90
11597;DHT22;5854;48.072;16.286;2024-01-10T15:02:42;-2.10;68.80
11597;DHT22;5854;48.072;16.286;2024-01-10T15:05:11;-2.20;70.60
11597;DHT22;5854;48.072;16.286;2024-01-10T15:07:40;-2.30;71.30
11597;DHT22;5854;48.072;16.286;2024-01-10T15:10:08;-2.40;71.90
11597;DHT22;5854;48.072;16.286;2024-01-10T15:12:35;-2.40;72.70
11597;DHT22;5854;48.072;16.286;2024-01-10T15:15:03;-2.40;73.20
11597;DHT22;5854;48.072;16.286;2024-01-10T15:17:31;-2.50;72.70
11597;DHT22;5854;48.072;16.286;2024-01-10T15:19:59;-2.60;72.90
11597;DHT22;5854;48.072;16.286;2024-01-10T15:22:26;-2.60;74.00
11597;DHT22;5854;48.072;16.286;2024-01-10T15:24:55;-2.70;73.60
11597;DHT22;5854;48.072;16.286;2024-01-10T15:27:22;-2.80;73.20
11597;DHT22;5854;48.072;16.286;2024-01-10T15:29:49;-2.80;73.10
11597;DHT22;5854;48.072;16.286;2024-01-10T15:32:16;-2.90;73.80
11597;DHT22;5854;48.072;16.286;2024-01-10T15:34:44;-2.90;73.90
11597;DHT22;5854;48.072;16.286;2024-01-10T15:37:12;-3.00;73.90
11597;DHT22;5854;48.072;16.286;2024-01-10T15:39:40;-3.00;73.90
11597;DHT22;5854;48.072;16.286;2024-01-10T15:42:09;-3.10;74.30